Douentza Airport


Codes: GADZ/
Name: Douentza Airport
City: Douentza
Country: Mali
Elevation: 984 ft.

Photos at Douentza Airport


   Photos courtesy of SpottingLog. You can add your own sightings and photos by signing up for a free trial today.



No photos found.

Weather at Douentza Airport


Time (UTC)DescriptionTempratureWindCloud coverageVisibilityPressureHumidity
26-Jun-2024 00:00Overcast Clouds36°C7 mph, W93%10000m1008hPa32%
26-Jun-2024 03:00Light Rain35°C7 mph, N86%10000m1008hPa34%
26-Jun-2024 06:00Overcast Clouds34°C4 mph, W85%10000m1009hPa39%
26-Jun-2024 09:00Broken Clouds36°C2 mph, SE68%10000m1009hPa30%
26-Jun-2024 12:00Broken Clouds39°C2 mph, E58%10000m1008hPa25%
26-Jun-2024 15:00Broken Clouds41°C2 mph, NE68%10000m1006hPa20%
26-Jun-2024 18:00Broken Clouds40°C7 mph, N73%10000m1005hPa20%
26-Jun-2024 21:00Broken Clouds37°C7 mph, NW65%10000m1007hPa29%
27-Jun-2024 00:00Broken Clouds36°C7 mph, SW52%10000m1007hPa32%
27-Jun-2024 03:00Scattered Clouds34°C4 mph, S43%10000m1007hPa34%
27-Jun-2024 06:00Scattered Clouds32°C7 mph, S27%10000m1008hPa41%
27-Jun-2024 09:00Few Clouds35°C11 mph, SW12%10000m1010hPa35%
27-Jun-2024 12:00Clear Sky38°C9 mph, SW8%10000m1009hPa28%
27-Jun-2024 15:00Clear Sky40°C4 mph, SW1%10000m1006hPa23%
27-Jun-2024 18:00Few Clouds40°C4 mph, SW12%10000m1006hPa23%
27-Jun-2024 21:00Light Rain38°C4 mph, W31%10000m1008hPa27%
28-Jun-2024 00:00Scattered Clouds36°C7 mph, SW26%10000m1008hPa31%
28-Jun-2024 03:00Few Clouds35°C4 mph, SW18%10000m1007hPa34%
28-Jun-2024 06:00Scattered Clouds33°C9 mph, SW42%10000m1009hPa44%
28-Jun-2024 09:00Few Clouds36°C13 mph, SW11%10000m1009hPa37%
28-Jun-2024 12:00Scattered Clouds39°C11 mph, SW33%10000m1009hPa29%
28-Jun-2024 15:00Broken Clouds41°C16 mph, W74%10000m1007hPa26%
28-Jun-2024 18:00Scattered Clouds39°C11 mph, W46%10000m1006hPa27%
28-Jun-2024 21:00Clear Sky38°C7 mph, SW0%10000m1007hPa29%
29-Jun-2024 00:00Clear Sky36°C11 mph, S1%10000m1007hPa34%
29-Jun-2024 03:00Scattered Clouds35°C13 mph, SW38%10000m1006hPa37%
29-Jun-2024 06:00Scattered Clouds32°C13 mph, S37%10000m1008hPa45%
29-Jun-2024 09:00Overcast Clouds35°C18 mph, SW86%10000m1009hPa42%
29-Jun-2024 12:00Broken Clouds38°C18 mph, SW73%10000m1008hPa34%
29-Jun-2024 15:00Few Clouds40°C16 mph, W17%10000m1005hPa27%
29-Jun-2024 18:00Clear Sky40°C16 mph, W9%10000m1004hPa26%
29-Jun-2024 21:00Few Clouds38°C9 mph, S11%10000m1006hPa30%
30-Jun-2024 00:00Light Rain32°C16 mph, E56%10000m1008hPa47%
30-Jun-2024 03:00Moderate Rain25°C16 mph, SE100%10000m1009hPa76%
30-Jun-2024 06:00Light Rain28°C11 mph, S100%10000m1009hPa61%
30-Jun-2024 09:00Overcast Clouds32°C7 mph, SW100%10000m1010hPa43%
30-Jun-2024 12:00Overcast Clouds36°C13 mph, SW100%10000m1010hPa33%
30-Jun-2024 15:00Overcast Clouds36°C11 mph, S100%10000m1009hPa34%
30-Jun-2024 18:00Overcast Clouds35°C7 mph, SE97%10000m1008hPa35%
30-Jun-2024 21:00Light Rain35°C0 mph, SW93%10000m1010hPa37%